Terminal Aerodrome Forecast
Issued by NWS

Home | Current Version | Previous Version | Graphics & Text | Print | Product List | Glossary On
Versions: 1 2 3 4 5 6 7 8 9 10 11 12 13 14 15 16
000
FTUS43 KLSX 201521 AAA
TAFSUS
TAF AMD
KSUS 201521Z 2015/2112 25012G20KT P6SM VCSH SCT030 OVC080
      TEMPO 2015/2016 -SHRA BKN030
     FM201700 27012G21KT P6SM -SHRA VCTS OVC050CB
     FM202100 29011G22KT P6SM BKN070
     FM210000 33005KT P6SM SCT110=

USA.gov is the U.S. government's official web portal to all federal, state and local government web resources and services.